Time;durP1;ratioP1;P1;durP2;ratioP2;P2;SDS_P1;SDS_P2;PMS_P1;PMS_P2;Temp;Humidity;BMP_temperature;BMP_pressure;BME280_temperature;BME280_humidity;BME280_pressure;Samples;Min_cycle;Max_cycle;Signal;HPM_P1;HPM_P2
2021/06/12 04:31:59;;;;;;;;;1.00;1.00;;;;;20.45;58.52;102032.56;5936409;23;46158;-79
2021/06/12 04:34:24;;;;;;;;;1.00;1.00;;;;;20.40;58.71;102030.16;4966448;28;45533;-81
2021/06/12 04:36:50;;;;;;;;;1.25;1.25;;;;;20.45;58.70;102048.59;4974137;28;45235;-80
2021/06/12 04:39:16;;;;;;;;;1.25;1.00;;;;;20.50;58.82;102048.34;4966544;28;46626;-81
2021/06/12 04:41:41;;;;;;;;;1.00;1.00;;;;;20.39;58.81;102039.13;4979208;28;46500;-80
2021/06/12 04:44:07;;;;;;;;;1.00;1.00;;;;;20.38;58.94;102034.72;4980239;28;45244;-81
2021/06/12 04:46:32;;;;;;;;;2.00;1.00;;;;;20.38;58.73;102041.88;4977222;28;45217;-81
2021/06/12 04:48:57;;;;;;;;;1.75;1.00;;;;;20.34;59.05;102041.19;4977268;28;45363;-81
2021/06/12 04:51:23;;;;;;;;;0.50;0.50;;;;;20.41;59.10;102055.06;4975758;28;46233;-82
2021/06/12 04:53:48;;;;;;;;;2.25;1.00;;;;;20.34;58.71;102058.06;4963661;28;45632;-74
2021/06/12 04:56:14;;;;;;;;;2.50;1.00;;;;;20.34;59.06;102051.88;4960484;28;45240;-79
2021/06/12 04:58:39;;;;;;;;;2.00;2.00;;;;;20.32;59.22;102046.59;4972212;28;45216;-79
2021/06/12 05:01:04;;;;;;;;;1.50;1.50;;;;;20.18;59.00;102027.78;4993346;28;46955;-85
2021/06/12 05:03:30;;;;;;;;;3.00;1.25;;;;;20.39;59.16;102076.53;4961288;28;45454;-81
2021/06/12 05:05:56;;;;;;;;;1.00;1.00;;;;;20.37;59.30;102061.53;4969426;28;45529;-81
2021/06/12 05:08:22;;;;;;;;;1.00;1.00;;;;;20.33;59.18;102064.34;4974912;28;46365;-80
2021/06/12 05:10:47;;;;;;;;;2.00;2.00;;;;;20.36;59.49;102063.31;4966977;28;45297;-87
2021/06/12 05:13:12;;;;;;;;;2.00;2.00;;;;;20.31;59.40;102068.91;4977666;28;45356;-88
2021/06/12 05:15:38;;;;;;;;;1.00;1.00;;;;;20.29;59.59;102065.47;4980846;28;45313;-83
2021/06/12 05:18:06;;;;;;;;;2.25;2.25;;;;;20.32;59.46;102072.44;4974401;28;45538;-82
2021/06/12 05:20:35;;;;;;;;;4.00;3.00;;;;;20.29;59.67;102064.59;4962097;28;45897;-82
2021/06/12 05:23:02;;;;;;;;;2.00;2.00;;;;;20.37;59.51;102080.22;4980255;28;45290;-84
2021/06/12 05:25:28;;;;;;;;;2.25;2.25;;;;;20.30;59.55;102066.31;4965137;28;45639;-84
2021/06/12 08:26:07;;;;;;;;;6.75;6.25;;;;;21.19;58.13;102170.22;5464996;23;46176;-77
2021/06/12 08:28:32;;;;;;;;;6.00;6.00;;;;;21.09;58.48;102160.03;4974347;28;45611;-77
2021/06/12 08:30:58;;;;;;;;;7.00;5.00;;;;;21.26;58.84;102182.28;4964655;28;45331;-81
2021/06/12 08:33:24;;;;;;;;;9.00;9.00;;;;;21.28;58.33;102174.22;4974486;28;45544;-73
2021/06/12 08:35:49;;;;;;;;;9.75;9.00;;;;;21.30;57.86;102170.50;4972137;28;45996;-73
2021/06/12 08:38:15;;;;;;;;;9.50;8.00;;;;;21.26;58.17;102166.25;4971735;28;45240;-74
2021/06/12 08:40:40;;;;;;;;;5.25;5.25;;;;;21.20;58.11;102163.94;4975502;28;45446;-74
2021/06/12 08:43:06;;;;;;;;;6.50;6.50;;;;;21.23;57.71;102180.69;4973140;28;46107;-77
2021/06/12 08:45:33;;;;;;;;;10.00;8.00;;;;;21.07;57.66;102171.78;4969560;28;45321;-78
2021/06/12 08:48:01;;;;;;;;;8.00;8.00;;;;;21.06;58.00;102186.97;4960191;28;45432;-77
2021/06/12 08:50:29;;;;;;;;;8.50;7.00;;;;;20.98;58.47;102167.78;4965912;28;45413;-77
2021/06/12 08:52:57;;;;;;;;;8.75;7.25;;;;;21.03;58.23;102184.47;4973025;28;45297;-77
2021/06/12 08:55:23;;;;;;;;;8.00;8.00;;;;;21.07;58.38;102178.00;4978050;28;47303;-77
2021/06/12 08:57:49;;;;;;;;;12.75;8.25;;;;;21.07;58.62;102179.78;4964926;28;45523;-78
2021/06/12 09:00:17;;;;;;;;;12.50;10.75;;;;;21.08;58.61;102163.69;4967921;28;45575;-76
2021/06/12 09:03:04;;;;;;;;;11.25;11.00;;;;;21.27;58.60;102189.38;4971879;28;47359;-76
2021/06/12 09:05:52;;;;;;;;;12.50;12.50;;;;;21.30;58.53;102191.91;4970046;28;46249;-78
2021/06/12 09:08:29;;;;;;;;;17.25;14.50;;;;;21.32;58.33;102203.34;4976233;28;46283;-77
2021/06/12 09:10:56;;;;;;;;;14.00;11.25;;;;;21.31;58.09;102196.28;4977504;28;45558;-77
2021/06/12 09:13:42;;;;;;;;;12.75;10.00;;;;;21.23;58.60;102203.88;4980652;28;45309;-77
2021/06/12 09:16:33;;;;;;;;;15.00;13.25;;;;;21.18;58.95;102196.13;4961297;28;45618;-76
2021/06/12 09:19:06;;;;;;;;;13.00;11.75;;;;;20.78;58.05;102124.31;4959404;28;45250;-76
2021/06/12 09:21:43;;;;;;;;;17.00;15.75;;;;;21.10;58.78;102193.00;4973859;28;45290;-77
2021/06/12 09:24:49;;;;;;;;;15.75;13.00;;;;;21.08;59.39;102192.22;4978969;28;45593;-77
2021/06/12 09:27:17;;;;;;;;;19.25;16.50;;;;;21.04;58.75;102182.66;4976893;28;47153;-77
2021/06/12 09:29:48;;;;;;;;;14.25;10.75;;;;;21.06;59.06;102189.63;4969618;28;45680;-77
2021/06/12 09:32:15;;;;;;;;;13.50;11.50;;;;;21.00;58.69;102182.81;4974268;28;45421;-77
2021/06/12 09:34:42;;;;;;;;;18.50;14.50;;;;;21.03;59.15;102171.09;4968047;28;46349;-77
2021/06/12 09:37:17;;;;;;;;;14.75;14.50;;;;;21.19;59.06;102199.63;4969110;28;47311;-77
2021/06/12 09:39:55;;;;;;;;;12.75;12.50;;;;;21.26;58.95;102201.00;4970930;28;45296;-77
2021/06/12 09:42:40;;;;;;;;;19.50;15.25;;;;;21.21;59.14;102203.09;4964784;28;45315;-77
2021/06/12 09:45:07;;;;;;;;;14.50;13.00;;;;;21.23;58.89;102194.06;4978037;28;46819;-77
2021/06/12 09:47:32;;;;;;;;;16.00;13.25;;;;;21.30;58.52;102207.06;4992604;28;47213;-76
2021/06/12 09:50:03;;;;;;;;;15.00;14.25;;;;;21.24;58.51;102190.41;4972994;28;45505;-77
2021/06/12 09:52:40;;;;;;;;;18.50;16.75;;;;;21.29;58.21;102202.66;4971156;28;45627;-77
2021/06/12 09:55:06;;;;;;;;;19.25;15.00;;;;;21.19;58.94;102186.25;4972131;28;47479;-77
2021/06/12 09:57:31;;;;;;;;;14.25;13.75;;;;;21.34;58.53;102193.44;4973632;28;46126;-77
2021/06/12 09:59:57;;;;;;;;;19.25;18.25;;;;;21.37;58.40;102200.44;4978597;28;45342;-77
2021/06/12 10:02:39;;;;;;;;;12.75;12.25;;;;;21.30;58.29;102188.34;4980235;28;45214;-77
2021/06/12 10:05:07;;;;;;;;;20.75;19.00;;;;;21.40;57.84;102207.41;4974924;28;47648;-77
2021/06/12 10:07:32;;;;;;;;;18.75;16.75;;;;;21.30;58.40;102194.56;4978738;28;47007;-77
2021/06/12 10:10:03;;;;;;;;;17.25;15.25;;;;;21.33;58.54;102186.38;4978790;28;45376;-77
2021/06/12 10:12:29;;;;;;;;;20.00;16.75;;;;;21.44;58.61;102207.16;4978646;28;45289;-76
2021/06/12 10:14:57;;;;;;;;;18.50;16.50;;;;;21.34;58.04;102184.53;4975299;28;45392;-72
2021/06/12 20:11:34;;;;;;;;;19.50;19.25;;;;;22.87;49.33;102271.25;5744190;23;45805;-73
2021/06/12 20:14:00;;;;;;;;;22.25;20.25;;;;;22.84;49.38;102263.41;5003016;23;45367;-73
2021/06/12 20:16:27;;;;;;;;;9.00;9.00;;;;;22.83;49.96;102269.75;4987593;28;45348;-74
2021/06/12 20:18:53;;;;;;;;;23.75;19.25;;;;;22.82;50.34;102273.38;4988401;28;45278;-74
2021/06/12 20:21:19;;;;;;;;;18.25;16.00;;;;;22.79;50.98;102279.78;4980649;28;45192;-74
2021/06/12 20:23:45;;;;;;;;;10.00;8.50;;;;;22.81;51.07;102285.06;4984713;28;45747;-73
2021/06/12 20:26:11;;;;;;;;;17.25;14.00;;;;;22.80;51.53;102292.22;4987435;28;46767;-74
2021/06/12 20:28:36;;;;;;;;;14.50;14.00;;;;;22.77;51.80;102296.91;4992747;28;45494;-73
2021/06/12 20:31:02;;;;;;;;;10.00;10.00;;;;;22.76;52.13;102300.56;4990172;28;47117;-73
2021/06/12 20:33:28;;;;;;;;;10.50;9.50;;;;;22.72;52.46;102293.66;4987032;28;45500;-74
2021/06/12 20:35:53;;;;;;;;;13.75;13.00;;;;;22.70;52.40;102296.41;4998144;28;45329;-74
2021/06/12 20:38:19;;;;;;;;;7.75;7.75;;;;;22.70;52.33;102304.44;4997954;28;46077;-73
2021/06/12 20:40:45;;;;;;;;;11.25;9.25;;;;;22.66;52.33;102311.81;4993276;28;45310;-73
2021/06/12 20:43:11;;;;;;;;;9.75;9.75;;;;;22.61;52.68;102311.22;4987101;28;46159;-74
2021/06/12 20:45:36;;;;;;;;;9.00;9.00;;;;;22.56;52.76;102308.81;4984158;28;45379;-73
2021/06/12 20:48:02;;;;;;;;;7.75;7.75;;;;;22.53;53.20;102305.44;4982163;28;45372;-74
2021/06/12 20:50:28;;;;;;;;;10.50;8.50;;;;;22.49;53.29;102315.50;4979647;28;45580;-74
2021/06/12 20:52:54;;;;;;;;;9.50;9.00;;;;;22.45;53.33;102325.50;4981428;28;46269;-74
2021/06/12 20:55:22;;;;;;;;;8.75;7.50;;;;;22.41;53.60;102315.06;4988435;28;46054;-73
2021/06/12 20:57:48;;;;;;;;;8.00;7.50;;;;;22.34;53.38;102336.88;4998970;28;45400;-74
2021/06/12 21:00:15;;;;;;;;;7.75;7.25;;;;;22.28;53.45;102330.97;4990377;28;46037;-74
2021/06/12 21:02:41;;;;;;;;;9.50;9.00;;;;;22.23;53.29;102326.75;4979401;28;48251;-73
2021/06/12 21:05:09;;;;;;;;;6.50;6.50;;;;;22.19;53.05;102330.59;4995331;28;45294;-74
2021/06/12 21:07:35;;;;;;;;;7.50;7.50;;;;;22.12;52.87;102335.44;4993963;28;45427;-74
2021/06/12 21:10:01;;;;;;;;;7.75;7.75;;;;;22.11;52.76;102333.69;4999873;28;45253;-74
2021/06/12 21:12:27;;;;;;;;;10.00;8.50;;;;;22.06;52.83;102342.94;4989712;28;47621;-74
2021/06/12 21:14:52;;;;;;;;;7.00;6.25;;;;;22.00;53.28;102342.31;4992090;28;45304;-74
2021/06/12 21:17:17;;;;;;;;;11.00;8.50;;;;;21.99;53.17;102345.97;4986013;28;45365;-73
2021/06/12 21:19:43;;;;;;;;;7.75;7.00;;;;;22.00;53.52;102339.66;4997886;28;45769;-74
2021/06/12 21:22:09;;;;;;;;;7.25;7.00;;;;;21.99;53.67;102345.97;4989623;28;45642;-73
2021/06/12 21:24:34;;;;;;;;;8.50;6.50;;;;;21.95;52.84;102346.22;4999899;28;45304;-74
2021/06/12 21:27:00;;;;;;;;;7.50;7.50;;;;;21.89;53.31;102350.09;4993829;28;45380;-74
2021/06/12 21:29:26;;;;;;;;;6.50;6.50;;;;;21.87;52.88;102354.69;4988365;28;45541;-73
2021/06/12 21:31:51;;;;;;;;;9.75;7.50;;;;;21.85;53.03;102353.88;4979879;28;46998;-73
2021/06/12 21:34:16;;;;;;;;;6.50;6.25;;;;;21.84;53.08;102363.72;4986546;28;45196;-74
2021/06/12 21:36:42;;;;;;;;;6.75;6.25;;;;;21.81;52.82;102359.41;4978821;28;45245;-74
2021/06/12 21:39:08;;;;;;;;;7.50;7.50;;;;;21.81;53.19;102364.75;4980518;28;45514;-74
2021/06/12 21:41:33;;;;;;;;;7.00;6.00;;;;;21.80;53.11;102367.53;4987427;28;45690;-74
2021/06/12 21:43:59;;;;;;;;;6.25;5.75;;;;;21.80;53.29;102367.53;4983193;28;45322;-70
2021/06/12 21:46:25;;;;;;;;;6.00;6.00;;;;;21.79;53.26;102369.31;4991771;28;45351;-70
2021/06/12 21:48:50;;;;;;;;;6.25;4.25;;;;;21.76;53.12;102368.63;4983787;28;45758;-70
2021/06/12 21:51:16;;;;;;;;;7.00;6.00;;;;;21.72;53.39;102372.41;4981780;28;47231;-70
2021/06/12 21:53:41;;;;;;;;;7.25;7.25;;;;;21.67;53.27;102373.53;4990559;28;45486;-73
2021/06/12 21:56:08;;;;;;;;;6.50;5.00;;;;;21.61;53.16;102375.69;4981797;28;45721;-72
